Time;durP1;ratioP1;P1;durP2;ratioP2;P2;SDS_P1;SDS_P2;PMS_P1;PMS_P2;Temp;Humidity;BMP_temperature;BMP_pressure;BME280_temperature;BME280_humidity;BME280_pressure;Samples;Min_cycle;Max_cycle;Signal;HPM_P1;HPM_P2
2022/02/12 00:01:08;;;;;;;;;;;4.70;99.90;;;;;;5013679;28;20004;-93
2022/02/12 00:03:37;;;;;;;;;;;4.70;99.90;;;;;;5012167;28;19910;-93
2022/02/12 00:06:03;;;;;;;;;;;4.70;99.90;;;;;;5005333;28;19914;-92
2022/02/12 00:08:29;;;;;;;;;;;4.70;99.90;;;;;;4996813;28;20283;-93
2022/02/12 00:10:55;;;;;;;;;;;4.80;99.90;;;;;;5008705;28;19922;-93
2022/02/12 00:13:20;;;;;;;;;;;4.70;99.90;;;;;;5015503;28;19909;-93
2022/02/12 00:15:47;;;;;;;;;;;4.70;99.90;;;;;;5006523;28;19918;-93
2022/02/12 00:18:12;;;;;;;;;;;4.70;99.90;;;;;;5019197;28;19925;-93
2022/02/12 00:20:38;;;;;;;;;;;4.70;99.90;;;;;;4996431;28;20045;-93
2022/02/12 00:23:04;;;;;;;;;;;4.70;99.90;;;;;;4996014;28;20196;-94
2022/02/12 00:25:30;;;;;;;;;;;4.70;99.90;;;;;;4996024;28;20161;-93
2022/02/12 00:27:55;;;;;;;;;;;4.70;99.90;;;;;;4995448;28;19909;-93
2022/02/12 00:30:21;;;;;;;;;;;4.70;99.90;;;;;;5006843;28;19925;-92
2022/02/12 00:32:46;;;;;;;;;;;4.70;99.90;;;;;;5007806;28;19920;-93
2022/02/12 00:35:12;;;;;;;;;;;4.70;99.90;;;;;;4996065;28;19909;-92
2022/02/12 00:37:38;;;;;;;;;;;4.70;99.90;;;;;;5012843;28;19920;-93
2022/02/12 00:40:04;;;;;;;;;;;4.80;99.90;;;;;;5010956;28;19932;-93
2022/02/12 00:42:32;;;;;;;;;;;4.70;99.90;;;;;;4988905;28;19913;-93
2022/02/12 00:44:59;;;;;;;;;;;4.70;99.90;;;;;;4995103;28;19916;-93
2022/02/12 00:47:24;;;;;;;;;;;4.60;99.90;;;;;;5008558;28;19941;-93
2022/02/12 00:49:50;;;;;;;;;;;4.60;99.90;;;;;;5004352;28;20263;-93
2022/02/12 00:52:17;;;;;;;;;;;4.60;99.90;;;;;;4998547;28;19967;-92
2022/02/12 00:54:42;;;;;;;;;;;4.60;99.90;;;;;;5002493;28;19921;-93
2022/02/12 00:57:09;;;;;;;;;;;4.60;99.90;;;;;;5001855;28;19933;-93
2022/02/12 00:59:34;;;;;;;;;;;4.60;99.90;;;;;;4994106;28;19996;-93
2022/02/12 01:02:00;;;;;;;;;;;4.60;99.90;;;;;;5009442;28;19968;-92
2022/02/12 01:04:25;;;;;;;;;;;4.50;99.90;;;;;;5012761;28;19910;-93
2022/02/12 01:06:51;;;;;;;;;;;4.50;99.90;;;;;;5010721;28;19917;-92
2022/02/12 01:09:16;;;;;;;;;;;4.50;99.90;;;;;;4997807;28;19917;-93
2022/02/12 01:11:42;;;;;;;;;;;4.50;99.90;;;;;;5010840;28;20028;-93
2022/02/12 01:14:10;;;;;;;;;;;4.50;99.90;;;;;;5012770;28;19917;-92
2022/02/12 01:16:35;;;;;;;;;;;4.50;99.90;;;;;;5004705;28;19925;-93
2022/02/12 01:19:01;;;;;;;;;;;4.40;99.90;;;;;;5010768;28;19913;-93
2022/02/12 01:21:26;;;;;;;;;;;4.40;99.90;;;;;;5012075;28;19925;-93
2022/02/12 01:23:52;;;;;;;;;;;4.50;99.90;;;;;;4994814;28;19910;-93
2022/02/12 01:26:19;;;;;;;;;;;4.50;99.90;;;;;;4999738;28;19905;-92
2022/02/12 01:28:44;;;;;;;;;;;4.40;99.90;;;;;;5010089;28;19909;-93
2022/02/12 01:31:10;;;;;;;;;;;4.50;99.90;;;;;;4994679;28;19909;-92
2022/02/12 01:33:36;;;;;;;;;;;4.50;99.90;;;;;;5005481;28;19914;-94
2022/02/12 01:36:02;;;;;;;;;;;4.50;99.90;;;;;;4999739;28;19924;-93
2022/02/12 01:38:29;;;;;;;;;;;4.50;99.90;;;;;;5004730;28;19913;-93
2022/02/12 01:40:55;;;;;;;;;;;4.40;99.90;;;;;;5000125;28;20034;-93
2022/02/12 01:43:21;;;;;;;;;;;4.40;99.90;;;;;;5003997;28;20437;-92
2022/02/12 01:45:46;;;;;;;;;;;4.40;99.90;;;;;;5012072;28;20004;-93
2022/02/12 01:48:13;;;;;;;;;;;4.40;99.90;;;;;;5000662;28;19913;-93
2022/02/12 01:50:39;;;;;;;;;;;4.40;99.90;;;;;;4994537;28;19917;-93
2022/02/12 01:53:04;;;;;;;;;;;4.30;99.90;;;;;;5007439;28;19910;-93
2022/02/12 01:55:30;;;;;;;;;;;4.30;99.90;;;;;;5001134;28;20386;-93
2022/02/12 01:57:55;;;;;;;;;;;4.30;99.90;;;;;;5012856;28;20270;-93
2022/02/12 02:00:22;;;;;;;;;;;4.30;99.90;;;;;;5011892;28;20004;-93
2022/02/12 02:02:48;;;;;;;;;;;4.30;99.90;;;;;;4994351;28;20359;-92
2022/02/12 02:05:14;;;;;;;;;;;4.20;99.90;;;;;;5000968;28;20004;-92
2022/02/12 02:07:41;;;;;;;;;;;4.30;99.90;;;;;;4997242;28;19945;-93
2022/02/12 02:10:06;;;;;;;;;;;4.30;99.90;;;;;;5012837;28;19916;-93
2022/02/12 02:12:32;;;;;;;;;;;4.40;99.90;;;;;;5000832;28;20016;-92
2022/02/12 02:14:58;;;;;;;;;;;4.40;99.90;;;;;;5000848;28;20345;-92
2022/02/12 02:17:23;;;;;;;;;;;4.40;99.90;;;;;;5006928;28;19925;-93
2022/02/12 02:19:50;;;;;;;;;;;4.40;99.90;;;;;;5009268;28;19957;-92
2022/02/12 02:22:16;;;;;;;;;;;4.40;99.90;;;;;;5008954;28;19918;-93
2022/02/12 02:24:42;;;;;;;;;;;4.40;99.90;;;;;;5018305;28;19909;-93
2022/02/12 02:27:14;;;;;;;;;;;4.40;99.90;;;;;;5017523;28;19920;-93
2022/02/12 02:29:40;;;;;;;;;;;4.40;99.90;;;;;;5001078;28;19909;-91
2022/02/12 02:32:07;;;;;;;;;;;4.30;99.90;;;;;;5007645;28;19909;-92
2022/02/12 02:34:32;;;;;;;;;;;4.30;99.90;;;;;;5012044;28;19944;-93
2022/02/12 02:36:58;;;;;;;;;;;4.30;99.90;;;;;;5031936;28;19953;-93
2022/02/12 02:39:23;;;;;;;;;;;4.30;99.90;;;;;;5028386;28;19936;-92
2022/02/12 02:41:49;;;;;;;;;;;4.30;99.90;;;;;;5033213;28;20113;-92
2022/02/12 02:44:15;;;;;;;;;;;4.20;99.90;;;;;;5032954;28;19957;-92
2022/02/12 02:46:40;;;;;;;;;;;4.10;99.90;;;;;;5027868;28;19913;-93
2022/02/12 02:49:06;;;;;;;;;;;4.10;99.90;;;;;;5031167;28;19929;-93
2022/02/12 02:57:00;;;;;;;;;;;4.30;99.90;;;;;;5035971;28;19921;-92
2022/02/12 02:59:26;;;;;;;;;;;4.20;99.90;;;;;;5033641;28;19913;-93
2022/02/12 03:01:53;;;;;;;;;;;4.20;99.90;;;;;;5035829;28;19905;-93
2022/02/12 03:04:19;;;;;;;;;;;4.20;99.90;;;;;;5029358;28;20008;-92
2022/02/12 03:06:45;;;;;;;;;;;4.20;99.90;;;;;;5018792;28;19901;-92
2022/02/12 03:09:11;;;;;;;;;;;4.10;99.90;;;;;;5033666;28;19941;-93
2022/02/12 03:11:37;;;;;;;;;;;4.10;99.90;;;;;;5018771;28;19925;-92
2022/02/12 03:14:02;;;;;;;;;;;4.10;99.90;;;;;;5013493;28;20316;-93
2022/02/12 03:16:28;;;;;;;;;;;4.20;99.90;;;;;;4994801;28;19921;-92
2022/02/12 03:18:54;;;;;;;;;;;4.20;99.90;;;;;;4994217;28;19920;-93
2022/02/12 03:21:20;;;;;;;;;;;4.20;99.90;;;;;;4994558;28;19921;-93
2022/02/12 03:23:45;;;;;;;;;;;4.20;99.90;;;;;;5002049;28;19909;-92
2022/02/12 03:26:11;;;;;;;;;;;4.20;99.90;;;;;;4997524;28;20005;-93
2022/02/12 03:28:37;;;;;;;;;;;4.20;99.90;;;;;;5001633;28;19968;-92
2022/02/12 03:31:03;;;;;;;;;;;4.10;99.90;;;;;;5012724;28;19910;-93
2022/02/12 03:33:29;;;;;;;;;;;4.10;99.90;;;;;;4997344;28;19910;-92
2022/02/12 03:35:56;;;;;;;;;;;4.10;99.90;;;;;;5015734;28;19913;-93
2022/02/12 03:38:24;;;;;;;;;;;4.00;99.90;;;;;;5015927;28;19909;-93
2022/02/12 03:40:51;;;;;;;;;;;4.00;99.90;;;;;;5008997;28;20378;-92
2022/02/12 03:43:17;;;;;;;;;;;4.00;99.90;;;;;;4996968;28;19922;-93
2022/02/12 03:45:43;;;;;;;;;;;4.00;99.90;;;;;;5006718;28;19921;-92
2022/02/12 03:48:10;;;;;;;;;;;4.00;99.90;;;;;;5013971;28;19910;-92
2022/02/12 03:50:36;;;;;;;;;;;4.00;99.90;;;;;;5012233;28;19940;-93
2022/02/12 03:53:03;;;;;;;;;;;4.00;99.90;;;;;;4996887;28;19909;-93
2022/02/12 03:55:28;;;;;;;;;;;4.00;99.90;;;;;;5013952;28;19913;-92
2022/02/12 03:57:54;;;;;;;;;;;4.00;99.90;;;;;;5011934;28;19910;-93
2022/02/12 04:00:20;;;;;;;;;;;4.00;99.90;;;;;;5012062;28;20382;-93
2022/02/12 04:02:46;;;;;;;;;;;3.90;99.90;;;;;;5020931;28;19968;-92
2022/02/12 04:05:14;;;;;;;;;;;3.90;99.90;;;;;;5018937;28;19992;-93
2022/02/12 04:07:42;;;;;;;;;;;3.90;99.90;;;;;;5010834;28;20421;-93
2022/02/12 04:10:15;;;;;;;;;;;3.80;99.90;;;;;;5011389;28;19916;-93
2022/02/12 04:12:41;;;;;;;;;;;3.70;99.90;;;;;;5003586;28;19910;-93
2022/02/12 04:15:07;;;;;;;;;;;3.70;99.90;;;;;;5004038;28;19910;-93
2022/02/12 04:17:34;;;;;;;;;;;3.70;99.90;;;;;;5012054;28;20325;-92
2022/02/12 04:20:11;;;;;;;;;;;3.70;99.90;;;;;;5005844;28;20047;-93
2022/02/12 04:22:37;;;;;;;;;;;3.70;99.90;;;;;;5009331;28;20374;-93
2022/02/12 04:25:04;;;;;;;;;;;3.80;99.90;;;;;;5010883;28;19917;-93
2022/02/12 04:27:30;;;;;;;;;;;3.80;99.90;;;;;;5011109;28;19909;-92
2022/02/12 04:29:56;;;;;;;;;;;3.70;99.90;;;;;;4996374;28;19917;-93
2022/02/12 04:32:24;;;;;;;;;;;3.80;99.90;;;;;;4995768;28;20255;-93
2022/02/12 04:34:50;;;;;;;;;;;3.70;99.90;;;;;;5008472;28;19910;-93
2022/02/12 04:37:16;;;;;;;;;;;3.70;99.90;;;;;;5002191;28;19932;-92
2022/02/12 04:39:42;;;;;;;;;;;3.70;99.90;;;;;;4997151;28;19910;-92
2022/02/12 04:42:11;;;;;;;;;;;3.60;99.90;;;;;;5011064;28;19964;-92
2022/02/12 04:44:39;;;;;;;;;;;3.60;99.90;;;;;;5010413;28;20325;-92
2022/02/12 04:47:05;;;;;;;;;;;3.60;99.90;;;;;;5009870;28;19916;-93
2022/02/12 04:49:31;;;;;;;;;;;3.70;99.90;;;;;;5010600;28;19910;-93
2022/02/12 04:51:56;;;;;;;;;;;3.60;99.90;;;;;;5004229;28;19916;-92
2022/02/12 04:54:22;;;;;;;;;;;3.60;99.90;;;;;;5011181;28;19910;-93
2022/02/12 04:56:48;;;;;;;;;;;3.70;99.90;;;;;;5012658;28;20386;-94
2022/02/12 04:59:13;;;;;;;;;;;3.60;99.90;;;;;;5011382;28;19955;-93
2022/02/12 05:01:39;;;;;;;;;;;3.40;99.90;;;;;;5005588;28;20291;-93
2022/02/12 05:04:04;;;;;;;;;;;3.40;99.90;;;;;;5007150;28;19909;-93
2022/02/12 05:06:30;;;;;;;;;;;3.50;99.90;;;;;;5006771;28;19909;-93
2022/02/12 05:08:56;;;;;;;;;;;3.40;99.90;;;;;;4997746;28;19915;-93
2022/02/12 05:11:21;;;;;;;;;;;3.40;99.90;;;;;;5006120;28;19914;-93
2022/02/12 05:13:47;;;;;;;;;;;3.50;99.90;;;;;;5006024;28;20120;-93
2022/02/12 05:16:13;;;;;;;;;;;3.40;99.90;;;;;;5010990;28;20319;-93
2022/02/12 05:18:38;;;;;;;;;;;3.40;99.90;;;;;;4998866;28;19945;-93
2022/02/12 05:21:04;;;;;;;;;;;3.30;99.90;;;;;;5011006;28;19949;-94
2022/02/12 05:23:29;;;;;;;;;;;3.30;99.90;;;;;;5010956;28;19909;-93
2022/02/12 05:25:55;;;;;;;;;;;3.30;99.90;;;;;;4995356;28;20021;-93
2022/02/12 05:28:20;;;;;;;;;;;3.30;99.90;;;;;;4995083;28;19910;-93
2022/02/12 05:30:46;;;;;;;;;;;3.30;99.90;;;;;;5001515;28;19909;-93
2022/02/12 05:33:12;;;;;;;;;;;3.30;99.90;;;;;;5009194;28;19956;-93
2022/02/12 05:35:37;;;;;;;;;;;3.20;99.90;;;;;;5009944;28;19949;-93
2022/02/12 05:38:03;;;;;;;;;;;3.20;99.90;;;;;;4980239;28;20378;-93
2022/02/12 05:40:29;;;;;;;;;;;3.20;99.90;;;;;;5011981;28;19909;-93
2022/02/12 05:42:54;;;;;;;;;;;3.20;99.90;;;;;;4994993;28;20374;-93
2022/02/12 05:45:20;;;;;;;;;;;3.20;99.90;;;;;;5000783;28;19909;-93
2022/02/12 05:47:46;;;;;;;;;;;3.30;99.90;;;;;;5004024;28;19910;-93
2022/02/12 05:50:12;;;;;;;;;;;3.30;99.90;;;;;;4995014;28;19963;-93
2022/02/12 05:52:37;;;;;;;;;;;3.20;99.90;;;;;;5000402;28;19909;-93
2022/02/12 05:55:03;;;;;;;;;;;3.20;99.90;;;;;;4994199;28;20385;-92
2022/02/12 05:57:29;;;;;;;;;;;3.10;99.90;;;;;;5022269;28;19918;-92
2022/02/12 05:59:55;;;;;;;;;;;3.10;99.90;;;;;;5013860;28;20281;-94
2022/02/12 06:02:20;;;;;;;;;;;3.20;99.90;;;;;;4991054;28;19917;-91
2022/02/12 06:04:46;;;;;;;;;;;3.10;99.90;;;;;;4990141;28;19913;-93
2022/02/12 06:07:11;;;;;;;;;;;3.10;99.90;;;;;;4993385;28;19913;-90
2022/02/12 06:09:37;;;;;;;;;;;3.10;99.90;;;;;;4995877;28;19947;-90
2022/02/12 06:12:03;;;;;;;;;;;3.00;99.90;;;;;;4992608;28;19910;-90
2022/02/12 06:14:29;;;;;;;;;;;3.00;99.90;;;;;;5010123;28;19949;-90
2022/02/12 06:16:57;;;;;;;;;;;3.00;99.90;;;;;;5010494;28;19964;-90
2022/02/12 06:19:23;;;;;;;;;;;3.00;99.90;;;;;;5011074;28;20281;-90
2022/02/12 06:21:49;;;;;;;;;;;3.00;99.90;;;;;;5011058;28;19913;-89
2022/02/12 06:24:15;;;;;;;;;;;2.90;99.90;;;;;;5004562;28;19909;-90
2022/02/12 06:26:46;;;;;;;;;;;2.80;99.90;;;;;;4999532;28;19937;-90
2022/02/12 06:29:16;;;;;;;;;;;2.80;99.90;;;;;;5010967;28;19952;-89
2022/02/12 06:31:41;;;;;;;;;;;2.70;99.90;;;;;;5010747;28;20406;-90
2022/02/12 06:34:07;;;;;;;;;;;2.70;99.90;;;;;;5006436;28;19909;-90
2022/02/12 06:36:32;;;;;;;;;;;2.70;99.90;;;;;;4993020;28;19944;-90
2022/02/12 06:38:58;;;;;;;;;;;2.70;99.90;;;;;;5010705;28;19922;-89
2022/02/12 06:41:23;;;;;;;;;;;2.70;99.90;;;;;;5010855;28;20370;-89
2022/02/12 06:43:49;;;;;;;;;;;2.70;99.90;;;;;;5010741;28;20290;-89
2022/02/12 06:46:14;;;;;;;;;;;2.70;99.90;;;;;;5010482;28;20352;-89
2022/02/12 06:48:40;;;;;;;;;;;2.70;99.90;;;;;;5010727;28;19956;-89
2022/02/12 06:51:21;;;;;;;;;;;2.70;99.90;;;;;;5008475;28;19913;-95
2022/02/12 07:14:19;;;;;;;;;;;2.70;99.90;;;;;;5063119;23;20013;-93
2022/02/12 07:16:45;;;;;;;;;;;2.70;99.90;;;;;;4997077;28;19921;-90
2022/02/12 07:19:11;;;;;;;;;;;2.80;99.90;;;;;;5006125;28;20374;-93
2022/02/12 07:21:37;;;;;;;;;;;2.70;99.90;;;;;;4989907;28;20302;-94
2022/02/12 07:24:03;;;;;;;;;;;2.70;99.90;;;;;;4996701;28;19945;-94
2022/02/12 07:26:29;;;;;;;;;;;2.70;99.90;;;;;;4996377;28;19952;-94
2022/02/12 07:28:55;;;;;;;;;;;2.70;99.90;;;;;;4988885;28;19917;-94
2022/02/12 07:31:20;;;;;;;;;;;2.70;99.90;;;;;;4992794;28;19910;-93
2022/02/12 07:33:46;;;;;;;;;;;2.70;99.90;;;;;;4978070;28;19909;-93
2022/02/12 07:36:12;;;;;;;;;;;2.70;99.90;;;;;;4977505;28;19952;-94
2022/02/12 07:38:39;;;;;;;;;;;2.60;99.90;;;;;;4990898;28;20013;-94
2022/02/12 07:41:06;;;;;;;;;;;2.70;99.90;;;;;;4977640;28;19945;-93
2022/02/12 07:43:32;;;;;;;;;;;2.60;99.90;;;;;;4977708;28;19925;-94
2022/02/12 07:45:59;;;;;;;;;;;2.60;99.90;;;;;;4979976;28;19914;-94
2022/02/12 07:48:25;;;;;;;;;;;2.70;99.90;;;;;;4996519;28;19913;-93
2022/02/12 07:50:53;;;;;;;;;;;2.70;99.90;;;;;;4998660;28;19959;-93
2022/02/12 07:53:19;;;;;;;;;;;2.70;99.90;;;;;;5019308;28;19918;-92
2022/02/12 07:55:44;;;;;;;;;;;2.70;99.90;;;;;;4991406;28;20335;-93
2022/02/12 07:58:10;;;;;;;;;;;2.70;99.90;;;;;;4988227;28;19910;-92
2022/02/12 08:00:36;;;;;;;;;;;2.70;99.90;;;;;;4977976;28;19925;-92
2022/02/12 08:03:01;;;;;;;;;;;2.70;99.90;;;;;;4977745;28;20374;-93
2022/02/12 08:05:27;;;;;;;;;;;2.80;99.90;;;;;;4979151;28;19910;-93
2022/02/12 08:07:52;;;;;;;;;;;2.70;99.90;;;;;;4982283;28;19968;-94
2022/02/12 08:13:02;;;;;;;;;;;2.60;99.90;;;;;;5008293;28;20036;-93
2022/02/12 08:15:28;;;;;;;;;;;2.70;99.90;;;;;;4983798;28;20203;-94
2022/02/12 08:17:54;;;;;;;;;;;2.80;99.90;;;;;;4983697;28;19917;-94
2022/02/12 08:20:20;;;;;;;;;;;2.80;99.90;;;;;;4983769;28;19910;-94
2022/02/12 08:22:46;;;;;;;;;;;2.80;99.90;;;;;;4976814;28;19917;-93
2022/02/12 08:25:12;;;;;;;;;;;2.80;99.90;;;;;;4989716;28;20374;-93
2022/02/12 08:27:38;;;;;;;;;;;2.90;99.90;;;;;;4976773;28;19910;-93
2022/02/12 08:30:04;;;;;;;;;;;2.90;99.90;;;;;;4977037;28;19910;-93
2022/02/12 08:32:30;;;;;;;;;;;2.90;99.90;;;;;;4989920;28;19909;-93
2022/02/12 08:34:55;;;;;;;;;;;2.90;99.90;;;;;;5007084;28;20000;-93
2022/02/12 08:37:21;;;;;;;;;;;2.90;99.90;;;;;;4983153;28;19924;-93
2022/02/12 08:39:51;;;;;;;;;;;2.80;99.90;;;;;;4982704;28;20338;-93
2022/02/12 08:42:18;;;;;;;;;;;2.90;99.90;;;;;;4983066;28;19910;-93
2022/02/12 08:44:43;;;;;;;;;;;2.90;99.90;;;;;;4995652;28;19930;-94
2022/02/12 08:47:11;;;;;;;;;;;2.90;99.90;;;;;;4995192;28;19913;-94
2022/02/12 08:49:37;;;;;;;;;;;2.90;99.90;;;;;;4995027;28;20004;-93
2022/02/12 08:52:02;;;;;;;;;;;2.90;99.90;;;;;;4988858;28;19948;-92
2022/02/12 08:54:28;;;;;;;;;;;2.90;99.90;;;;;;4995093;28;19929;-93
2022/02/12 08:56:54;;;;;;;;;;;2.80;99.90;;;;;;4995357;28;19921;-94
2022/02/12 08:59:19;;;;;;;;;;;2.80;99.90;;;;;;4978078;28;19910;-93
2022/02/12 09:01:45;;;;;;;;;;;2.90;99.90;;;;;;4976766;28;19913;-93
2022/02/12 09:04:11;;;;;;;;;;;2.90;99.90;;;;;;4982451;28;19910;-92
2022/02/12 09:06:38;;;;;;;;;;;3.00;99.90;;;;;;4976126;28;19910;-92
2022/02/12 09:09:08;;;;;;;;;;;3.10;99.90;;;;;;4975994;28;20001;-93
2022/02/12 09:11:35;;;;;;;;;;;3.10;99.90;;;;;;4976083;28;19910;-94
2022/02/12 09:14:01;;;;;;;;;;;3.20;99.90;;;;;;4992849;28;19909;-93
2022/02/12 09:16:27;;;;;;;;;;;3.30;99.90;;;;;;4988291;28;20301;-93
2022/02/12 09:18:52;;;;;;;;;;;3.30;99.90;;;;;;4985649;28;19917;-93
2022/02/12 09:21:18;;;;;;;;;;;3.40;99.90;;;;;;4978696;28;19917;-94
2022/02/12 09:23:44;;;;;;;;;;;3.30;99.90;;;;;;4985979;28;19925;-93
2022/02/12 09:26:10;;;;;;;;;;;3.30;99.90;;;;;;4976060;28;19925;-93
2022/02/12 09:28:35;;;;;;;;;;;3.40;99.90;;;;;;4982434;28;19909;-92
2022/02/12 09:31:02;;;;;;;;;;;3.40;99.90;;;;;;5006383;28;20378;-93
2022/02/12 09:33:28;;;;;;;;;;;3.50;99.90;;;;;;4977868;28;19909;-93
2022/02/12 09:35:58;;;;;;;;;;;3.70;99.90;;;;;;4988912;28;19925;-95
2022/02/12 09:38:25;;;;;;;;;;;3.80;99.90;;;;;;4989298;28;19917;-95
2022/02/12 09:40:51;;;;;;;;;;;3.90;99.90;;;;;;4993897;28;19996;-95
2022/02/12 09:43:18;;;;;;;;;;;4.00;99.90;;;;;;4982755;28;19945;-94
2022/02/12 09:45:54;;;;;;;;;;;4.20;99.90;;;;;;4990136;28;20000;-95
2022/02/12 09:48:21;;;;;;;;;;;4.20;99.90;;;;;;5010477;28;19902;-94
2022/02/12 09:50:49;;;;;;;;;;;4.40;99.90;;;;;;4985196;28;19910;-94
2022/02/12 09:53:14;;;;;;;;;;;4.50;99.90;;;;;;4978783;28;19910;-94
2022/02/12 09:55:42;;;;;;;;;;;4.60;99.90;;;;;;4986482;28;20363;-93
2022/02/12 09:58:10;;;;;;;;;;;4.70;99.90;;;;;;4978132;28;19920;-95
2022/02/12 10:00:36;;;;;;;;;;;4.90;99.90;;;;;;4986642;28;19917;-93
2022/02/12 10:03:07;;;;;;;;;;;5.00;99.90;;;;;;4990817;28;19910;-93
2022/02/12 10:05:32;;;;;;;;;;;5.10;99.90;;;;;;5003884;28;19953;-95
2022/02/12 10:08:17;;;;;;;;;;;5.20;99.90;;;;;;4975453;28;19957;-94
2022/02/12 10:10:52;;;;;;;;;;;5.20;99.90;;;;;;4974981;28;19965;-93
2022/02/12 10:13:24;;;;;;;;;;;5.40;99.90;;;;;;4982115;28;19921;-94
2022/02/12 10:15:55;;;;;;;;;;;5.40;99.90;;;;;;4975624;28;19972;-94
2022/02/12 10:18:21;;;;;;;;;;;5.60;99.90;;;;;;4982379;28;19945;-96
2022/02/12 10:20:48;;;;;;;;;;;5.60;99.90;;;;;;4988138;28;19925;-95
2022/02/12 10:23:32;;;;;;;;;;;5.60;99.90;;;;;;4976412;28;19910;-94
2022/02/12 10:26:06;;;;;;;;;;;5.60;99.90;;;;;;4981613;28;20330;-95
2022/02/12 10:28:34;;;;;;;;;;;5.70;99.90;;;;;;4975296;28;19917;-94
2022/02/12 10:31:00;;;;;;;;;;;5.90;99.90;;;;;;4982277;28;19916;-93
2022/02/12 10:33:29;;;;;;;;;;;6.00;99.90;;;;;;4979656;28;19910;-95
2022/02/12 10:35:58;;;;;;;;;;;6.00;99.90;;;;;;4996579;28;19920;-95
2022/02/12 10:38:28;;;;;;;;;;;6.10;99.90;;;;;;4981517;28;19937;-93
2022/02/12 10:41:09;;;;;;;;;;;6.20;99.90;;;;;;4983518;28;19917;-94
2022/02/12 10:43:36;;;;;;;;;;;6.30;99.90;;;;;;4992121;28;19909;-94
2022/02/12 10:46:02;;;;;;;;;;;6.20;99.90;;;;;;4983224;28;19940;-93
2022/02/12 10:48:38;;;;;;;;;;;6.20;99.90;;;;;;4997864;28;19914;-92
2022/02/12 10:51:05;;;;;;;;;;;6.30;99.90;;;;;;4991688;28;19909;-92
2022/02/12 10:53:31;;;;;;;;;;;6.50;99.90;;;;;;4991889;28;19932;-93
2022/02/12 10:56:00;;;;;;;;;;;6.60;99.90;;;;;;4997763;28;20379;-95
2022/02/12 10:58:26;;;;;;;;;;;6.60;99.90;;;;;;4993346;28;19914;-92
2022/02/12 11:00:52;;;;;;;;;;;6.60;99.90;;;;;;4996584;28;19967;-92
2022/02/12 11:03:20;;;;;;;;;;;6.50;99.90;;;;;;4987200;28;19913;-94
2022/02/12 11:05:52;;;;;;;;;;;6.60;99.90;;;;;;4979225;28;20424;-93
2022/02/12 11:08:21;;;;;;;;;;;6.90;99.90;;;;;;4980044;28;19913;-95
2022/02/12 11:10:47;;;;;;;;;;;7.00;99.90;;;;;;4996963;28;19910;-95
2022/02/12 11:13:13;;;;;;;;;;;7.10;99.90;;;;;;4986692;28;19910;-93
2022/02/12 11:15:39;;;;;;;;;;;7.30;99.90;;;;;;4976351;28;20008;-94
2022/02/12 11:18:06;;;;;;;;;;;7.40;99.90;;;;;;4978654;28;20004;-93
2022/02/12 11:20:32;;;;;;;;;;;7.50;99.90;;;;;;4978678;28;20367;-94
2022/02/12 11:23:16;;;;;;;;;;;7.60;99.90;;;;;;4978651;28;20458;-92
2022/02/12 11:25:42;;;;;;;;;;;7.60;99.90;;;;;;4984277;28;19955;-93
2022/02/12 11:28:11;;;;;;;;;;;7.70;99.90;;;;;;4997361;28;20060;-94
2022/02/12 11:30:38;;;;;;;;;;;7.70;99.90;;;;;;4985256;28;19925;-95
2022/02/12 11:33:18;;;;;;;;;;;7.80;99.90;;;;;;4984894;28;19964;-94
2022/02/12 11:36:04;;;;;;;;;;;7.80;99.90;;;;;;4977996;28;19921;-93
2022/02/12 11:38:37;;;;;;;;;;;7.80;99.90;;;;;;4990861;28;19913;-93
2022/02/12 11:41:22;;;;;;;;;;;7.80;99.90;;;;;;5011422;28;20166;-94
2022/02/12 11:43:48;;;;;;;;;;;7.60;99.90;;;;;;4996331;28;19913;-95
2022/02/12 11:46:14;;;;;;;;;;;7.60;99.90;;;;;;4991563;28;19910;-93
2022/02/12 11:48:39;;;;;;;;;;;7.60;99.90;;;;;;4983079;28;20247;-95
2022/02/12 11:51:06;;;;;;;;;;;7.60;99.90;;;;;;4996803;28;19923;-94
2022/02/12 11:53:36;;;;;;;;;;;7.50;99.90;;;;;;4985349;28;19909;-92
2022/02/12 11:56:25;;;;;;;;;;;7.60;99.90;;;;;;4977644;28;20298;-93
2022/02/12 11:58:53;;;;;;;;;;;7.90;99.90;;;;;;4959123;28;19937;-94
2022/02/12 12:01:18;;;;;;;;;;;8.00;99.90;;;;;;4988430;28;19910;-95
2022/02/12 12:04:03;;;;;;;;;;;7.90;99.90;;;;;;4994926;28;19909;-95
2022/02/12 12:06:28;;;;;;;;;;;7.90;99.90;;;;;;4980423;28;19916;-92
2022/02/12 12:09:07;;;;;;;;;;;8.00;99.90;;;;;;4977427;28;19910;-93
2022/02/12 12:11:33;;;;;;;;;;;8.00;99.90;;;;;;4994816;28;19909;-92
2022/02/12 12:14:18;;;;;;;;;;;8.00;99.90;;;;;;4987756;28;19918;-94
2022/02/12 12:16:54;;;;;;;;;;;8.10;99.90;;;;;;4983250;28;19922;-93
2022/02/12 12:19:26;;;;;;;;;;;8.40;99.90;;;;;;4988880;28;20016;-93
2022/02/12 12:21:55;;;;;;;;;;;8.50;99.90;;;;;;4977470;28;19914;-93
2022/02/12 12:24:21;;;;;;;;;;;8.50;99.90;;;;;;4985017;28;20500;-93
2022/02/12 12:26:48;;;;;;;;;;;8.50;99.90;;;;;;4988570;28;20227;-93
2022/02/12 12:32:06;;;;;;;;;;;8.60;99.90;;;;;;5011147;28;19916;-94
2022/02/12 12:34:35;;;;;;;;;;;8.70;99.90;;;;;;4989483;28;19909;-96
2022/02/12 12:37:05;;;;;;;;;;;8.80;99.90;;;;;;4995742;28;19922;-92
2022/02/12 12:39:32;;;;;;;;;;;9.00;99.90;;;;;;4978541;28;19916;-95
2022/02/12 12:41:59;;;;;;;;;;;9.00;99.90;;;;;;4983213;28;19964;-96
2022/02/12 12:44:24;;;;;;;;;;;9.10;99.90;;;;;;4976807;28;19910;-93
2022/02/12 12:46:51;;;;;;;;;;;9.30;99.90;;;;;;4994001;28;19910;-92
2022/02/12 12:49:29;;;;;;;;;;;9.40;99.90;;;;;;4976947;28;20325;-93
2022/02/12 12:51:57;;;;;;;;;;;9.40;99.90;;;;;;4987736;28;20566;-93
2022/02/12 12:54:33;;;;;;;;;;;9.60;99.90;;;;;;4983372;28;20174;-96
2022/02/12 12:56:59;;;;;;;;;;;9.70;99.90;;;;;;4998635;28;19917;-93
2022/02/12 12:59:28;;;;;;;;;;;9.70;99.90;;;;;;4983308;28;20279;-94
2022/02/12 13:02:03;;;;;;;;;;;9.50;99.90;;;;;;4975963;28;21243;-93
2022/02/12 13:04:34;;;;;;;;;;;9.60;99.90;;;;;;4994444;28;19953;-93
2022/02/12 13:07:00;;;;;;;;;;;9.70;99.90;;;;;;4988573;28;19910;-93
2022/02/12 13:09:26;;;;;;;;;;;9.70;99.90;;;;;;4989058;28;19917;-93
2022/02/12 13:11:52;;;;;;;;;;;9.80;99.90;;;;;;4994954;28;19913;-93
2022/02/12 13:14:17;;;;;;;;;;;9.90;99.90;;;;;;4988725;28;19996;-93
2022/02/12 13:16:44;;;;;;;;;;;9.90;99.90;;;;;;4976294;28;19922;-95
2022/02/12 13:19:19;;;;;;;;;;;10.10;99.90;;;;;;4975946;28;20188;-93
2022/02/12 13:21:48;;;;;;;;;;;10.20;99.90;;;;;;4990050;28;20333;-94
2022/02/12 13:24:19;;;;;;;;;;;10.30;99.90;;;;;;4982365;28;19933;-94
2022/02/12 13:26:47;;;;;;;;;;;10.20;99.90;;;;;;4981336;28;19945;-93
2022/02/12 13:29:20;;;;;;;;;;;10.30;99.90;;;;;;4995688;28;20100;-93
2022/02/12 13:31:47;;;;;;;;;;;10.30;99.90;;;;;;4996056;28;20392;-92
2022/02/12 13:34:15;;;;;;;;;;;10.20;99.90;;;;;;4981593;28;20349;-92
2022/02/12 13:36:41;;;;;;;;;;;10.30;99.90;;;;;;4988856;28;19913;-94
2022/02/12 13:39:07;;;;;;;;;;;10.50;99.90;;;;;;4976198;28;20286;-95
2022/02/12 13:41:41;;;;;;;;;;;10.50;99.90;;;;;;4989721;28;19910;-95
2022/02/12 13:44:09;;;;;;;;;;;10.40;99.90;;;;;;4994568;28;20003;-93
2022/02/12 13:46:38;;;;;;;;;;;10.30;99.90;;;;;;4992713;28;19909;-93
2022/02/12 13:49:20;;;;;;;;;;;10.40;99.90;;;;;;4984330;28;19910;-93
2022/02/12 13:52:06;;;;;;;;;;;10.50;99.90;;;;;;4984165;28;20146;-93
2022/02/12 13:54:34;;;;;;;;;;;10.60;99.90;;;;;;4988659;28;19916;-95
2022/02/12 13:57:03;;;;;;;;;;;10.60;99.90;;;;;;4987849;28;20493;-93
2022/02/12 13:59:29;;;;;;;;;;;10.70;99.90;;;;;;4988292;28;20363;-93
2022/02/12 14:01:57;;;;;;;;;;;10.60;99.90;;;;;;4994575;28;19959;-93
2022/02/12 14:04:27;;;;;;;;;;;10.60;99.90;;;;;;4994229;28;20020;-94
2022/02/12 14:06:52;;;;;;;;;;;10.80;99.90;;;;;;4975063;28;19914;-92
2022/02/12 14:09:20;;;;;;;;;;;11.20;99.90;;;;;;4976235;28;19909;-93
2022/02/12 14:11:49;;;;;;;;;;;11.20;99.90;;;;;;4981608;28;20028;-93
2022/02/12 14:14:18;;;;;;;;;;;10.90;99.90;;;;;;4994272;28;19913;-92
2022/02/12 14:16:45;;;;;;;;;;;10.40;99.90;;;;;;4988172;28;19921;-93
2022/02/12 14:19:13;;;;;;;;;;;10.30;99.90;;;;;;4981705;28;20570;-93
2022/02/12 14:21:39;;;;;;;;;;;10.70;99.90;;;;;;4995273;28;19910;-95
2022/02/12 14:24:06;;;;;;;;;;;10.80;98.10;;;;;;4975217;28;19923;-95
2022/02/12 14:26:32;;;;;;;;;;;11.10;98.90;;;;;;4982508;28;19917;-95
2022/02/12 14:28:58;;;;;;;;;;;11.20;97.80;;;;;;4993864;28;19949;-95
2022/02/12 14:31:42;;;;;;;;;;;11.30;96.50;;;;;;4992372;28;20198;-94
2022/02/12 14:34:09;;;;;;;;;;;11.30;97.40;;;;;;4988948;28;19909;-93
2022/02/12 14:36:46;;;;;;;;;;;11.50;96.80;;;;;;4992829;28;19968;-94
2022/02/12 14:39:14;;;;;;;;;;;11.70;95.90;;;;;;4994707;28;19909;-93
2022/02/12 14:41:41;;;;;;;;;;;11.80;97.40;;;;;;4999964;28;20003;-93
2022/02/12 14:44:07;;;;;;;;;;;11.80;96.40;;;;;;4983439;28;19910;-94
2022/02/12 14:46:34;;;;;;;;;;;11.80;95.30;;;;;;4980510;28;20000;-93
2022/02/12 14:49:00;;;;;;;;;;;11.80;95.50;;;;;;4978705;28;19920;-93
2022/02/12 14:51:26;;;;;;;;;;;11.60;96.50;;;;;;4977831;28;19945;-94
2022/02/12 14:53:51;;;;;;;;;;;11.50;96.30;;;;;;4987202;28;19909;-92
2022/02/12 14:56:19;;;;;;;;;;;11.40;97.10;;;;;;4986503;28;19918;-93
2022/02/12 14:58:45;;;;;;;;;;;11.30;96.60;;;;;;4995440;28;19951;-94
2022/02/12 15:01:10;;;;;;;;;;;11.40;96.70;;;;;;5018322;28;19902;-93